Aérodrome :
LOGIN :

S'inscrire | Disclaimer

   EN    FR    IT 

 










Légende :    VFR   VFR Marginal   IFR   IFR Intensif   IFR Très Intensif
Visi : 
Plafond : 
>= 8 km
>= 3000ft
5 à 8 km
1000 à 3000 ft
1500m à 5 km
500 à 1000 ft
800 à 1500m
200 à 500 ft
< 800m
< 200 ft
Symboles :   Orages  Brouillard  Fortes neiges  Fortes précipitations  Vent > 20 kt
SIGMETs :   Divers  Orages  Givrage  Turbulence  Onde Orograph.  Cendres Volcan.







- Altitude de l'aérodrome : 162 ft
- Code IATA : BOD
- Voir les cartes d'approche


LFBD - Bordeaux / Merignac

DERNIER METAR :
  • 271200Z AUTO 08009KT 040V110 CAVOK 34/22 Q1018 NOSIG

METARs EXPIRÉS :
  • 271130Z AUTO 08008KT 040V110 CAVOK 33/22 Q1018 NOSIG
  • 271100Z AUTO 11007KT 040V140 CAVOK 32/21 Q1018 NOSIG
  • 271030Z AUTO 11004KT 020V150 CAVOK 31/21 Q1018 NOSIG
  • 271000Z AUTO VRB02KT CAVOK 29/21 Q1018 NOSIG
  • 270930Z AUTO VRB02KT CAVOK 27/20 Q1019 NOSIG

TAF TAF LFBD
Valide du 27 à 12h jusqu'au 28 à 18h UTC


271100Z 2712/2818 09012KT CAVOK TX39/2715Z TN20/2804Z
BECMG 2801/2803 25010KT OVC005
BECMG 2806/2808 CAVOK
ATIS : +33 5 57 92 81 04
Pas de NOTAMs connus pour ce terrain.
2 SIGMETs publiés pour la FIR Bordeaux (LFBB) :
 
Turbulence forte
LFBB SIGMET 3 VALID 271300/271700 LFPW
LFBB BORDEAUX FIR/UIR SEV TURB FCST WI N4230 E00045 - N4300 W00145 - N4345 W00145 - N4300 E00100 - N4230 E00045 SFC/FL100 STNR NC=
Turbulence forte
LFBB SIGMET 2 VALID 270900/271300 LFPW
LFBB BORDEAUX FIR/UIR SEV TURB FCST WI N4230 E00045 - N4300 W00145 - N4345 W00145 - N4300 E00100 - N4230 E00045 SFC/FL100 STNR NC=



MET'MAP, la Météo Aéronautique d'un coup d'oeil ! - Copyright ORBIFLY Décembre 2007 - Disclaimer

ORBIFLY MET'MAP TEAM :

Programmation & Développement : Alexandra Zaïnal
Conception & Développement : Baudouin d'Aumeries
Co-Programmation & Développement : Marc-Olivier Méhu
Soutien technique & logistique : Manuel Goepfert

Contact : metmap@orbifly.com




SOURCES & CREDITS :

   NOAA